createdAt,value
2022-11-14T00:04:29.503Z,0
2022-11-14T00:09:26.007Z,0
2022-11-14T00:14:26.125Z,0
2022-11-14T00:19:26.352Z,0
2022-11-14T00:24:25.482Z,0
2022-11-14T00:29:26.018Z,0
2022-11-14T00:34:25.644Z,0
2022-11-14T00:39:25.978Z,0
2022-11-14T00:44:26.339Z,0
2022-11-14T00:49:25.585Z,0
2022-11-14T00:54:25.839Z,0
2022-11-14T00:59:26.037Z,0
2022-11-14T01:04:25.423Z,0
2022-11-14T01:09:26.045Z,0
2022-11-14T01:14:25.434Z,0
2022-11-14T01:19:25.730Z,0
2022-11-14T01:24:26.347Z,0
2022-11-14T01:29:25.537Z,0
2022-11-14T01:34:25.996Z,0
2022-11-14T01:39:26.307Z,0
2022-11-14T01:44:25.589Z,0
2022-11-14T01:49:25.838Z,0
2022-11-14T01:54:26.131Z,0
2022-11-14T01:59:26.354Z,0
2022-11-14T02:04:25.389Z,0
2022-11-14T02:09:25.729Z,0
2022-11-14T02:14:26.403Z,0
2022-11-14T02:19:26.056Z,0
2022-11-14T02:24:25.590Z,0
2022-11-14T02:29:25.843Z,0
2022-11-14T02:34:26.073Z,0
2022-11-14T02:39:26.727Z,0
2022-11-14T02:44:25.981Z,0
2022-11-14T02:49:25.522Z,0
2022-11-14T02:54:25.697Z,0
2022-11-14T02:59:26.077Z,0
2022-11-14T03:04:25.875Z,0
2022-11-14T03:09:25.740Z,0
2022-11-14T03:14:25.796Z,0
2022-11-14T03:19:25.441Z,0
2022-11-14T03:24:26.386Z,0
2022-11-14T03:29:26.043Z,0
2022-11-14T03:34:26.092Z,0
2022-11-14T03:39:26.010Z,0
2022-11-14T03:44:26.006Z,0
2022-11-14T03:49:25.665Z,0
2022-11-14T03:54:25.952Z,0
2022-11-14T03:59:25.653Z,0
2022-11-14T04:04:25.676Z,0
2022-11-14T04:09:26.207Z,0
2022-11-14T04:14:25.967Z,0
2022-11-14T04:19:26.375Z,0
2022-11-14T04:24:25.643Z,0
2022-11-14T04:29:25.838Z,0
2022-11-14T04:34:26.271Z,0
2022-11-14T04:39:25.975Z,0
2022-11-14T04:44:26.300Z,0
2022-11-14T04:49:25.478Z,0
2022-11-14T04:54:25.873Z,0
2022-11-14T04:59:26.027Z,0
2022-11-14T05:04:26.322Z,0
2022-11-14T05:09:25.722Z,0
2022-11-14T05:14:26.249Z,0
2022-11-14T05:19:25.799Z,0
2022-11-14T05:24:26.031Z,0
2022-11-14T05:29:26.247Z,0
2022-11-14T05:34:25.706Z,0
2022-11-14T05:39:26.070Z,0
2022-11-14T05:44:26.505Z,0
2022-11-14T05:49:26.403Z,0
2022-11-14T05:54:25.968Z,0
2022-11-14T05:59:26.185Z,0
2022-11-14T06:04:25.705Z,0
2022-11-14T06:09:26.320Z,0
2022-11-14T06:14:25.741Z,0
2022-11-14T06:19:26.078Z,0
2022-11-14T06:24:25.973Z,0
2022-11-14T06:29:29.105Z,0
2022-11-14T06:34:25.820Z,0
2022-11-14T06:39:26.212Z,0
2022-11-14T06:44:29.669Z,0
2022-11-14T06:49:26.717Z,0
2022-11-14T06:54:26.024Z,0
2022-11-14T06:59:26.216Z,0
2022-11-14T07:04:26.443Z,0
2022-11-14T07:09:26.315Z,0
2022-11-14T07:14:26.197Z,2.1
2022-11-14T07:19:26.494Z,2.1
2022-11-14T07:24:26.020Z,5
2022-11-14T07:29:26.204Z,5
2022-11-14T07:34:26.117Z,7.4
2022-11-14T07:39:26.035Z,7.4
2022-11-14T07:44:26.115Z,7.4
2022-11-14T07:49:26.320Z,7.4
2022-11-14T07:54:25.811Z,11.6
2022-11-14T07:59:25.884Z,11.6
2022-11-14T08:04:26.148Z,17.3
2022-11-14T08:09:26.547Z,17.3
2022-11-14T08:14:25.666Z,18.2
2022-11-14T08:19:26.433Z,18.2
2022-11-14T08:24:25.688Z,18.6
2022-11-14T08:29:25.867Z,18.6
2022-11-14T08:34:26.464Z,20
2022-11-14T08:39:26.054Z,20
2022-11-14T08:44:26.233Z,30.6
2022-11-14T08:49:26.688Z,30.6
2022-11-14T08:54:25.801Z,25.1
2022-11-14T08:59:26.504Z,25.1
2022-11-14T09:04:26.358Z,28.4
2022-11-14T09:09:26.822Z,28.4
2022-11-14T09:14:25.989Z,41.8
2022-11-14T09:19:26.358Z,41.8
2022-11-14T09:24:25.730Z,39.9
2022-11-14T09:29:26.023Z,39.9
2022-11-14T09:34:26.267Z,42
2022-11-14T09:39:26.544Z,42
2022-11-14T09:44:25.768Z,45.6
2022-11-14T09:49:25.989Z,45.6
2022-11-14T09:54:26.346Z,55.9
2022-11-14T09:59:26.624Z,55.9
2022-11-14T10:04:25.910Z,73.2
2022-11-14T10:09:30.423Z,73.2
2022-11-14T10:14:26.137Z,55.7
2022-11-14T10:19:26.652Z,55.7
2022-11-14T10:24:26.019Z,66.1
2022-11-14T10:29:26.435Z,66.1
2022-11-14T10:34:26.615Z,74.1
2022-11-14T10:39:25.888Z,74.1
2022-11-14T10:44:25.949Z,82.4
2022-11-14T10:49:26.298Z,82.4
2022-11-14T10:54:26.599Z,88.1
2022-11-14T10:59:25.965Z,88.1
2022-11-14T11:04:26.214Z,105.5
2022-11-14T11:09:25.971Z,105.5
2022-11-14T11:14:26.478Z,108.6
2022-11-14T11:19:26.921Z,108.6
2022-11-14T11:24:25.781Z,148.4
2022-11-14T11:29:26.223Z,148.4
2022-11-14T11:34:26.636Z,146.9
2022-11-14T11:39:25.933Z,146.9
2022-11-14T11:44:26.326Z,238
2022-11-14T11:49:26.758Z,238
2022-11-14T11:54:26.042Z,213.9
2022-11-14T11:59:26.299Z,213.9
2022-11-14T12:04:26.584Z,75.1
2022-11-14T12:09:42.574Z,75.1
2022-11-14T12:14:25.898Z,125.3
2022-11-14T12:19:26.422Z,125.3
2022-11-14T12:24:26.709Z,194.2
2022-11-14T12:29:26.158Z,194.2
2022-11-14T12:34:26.518Z,145.3
2022-11-14T12:39:26.220Z,145.3
2022-11-14T12:44:26.221Z,140
2022-11-14T12:49:29.263Z,140
2022-11-14T12:54:26.533Z,138.1
2022-11-14T12:59:26.735Z,138.1
2022-11-14T13:04:25.951Z,129.4
2022-11-14T13:09:26.282Z,129.4
2022-11-14T13:14:26.509Z,147.6
2022-11-14T13:19:26.168Z,147.6
2022-11-14T13:24:26.401Z,131.2
2022-11-14T13:29:26.679Z,131.2
2022-11-14T13:34:26.146Z,122
2022-11-14T13:39:26.373Z,122
2022-11-14T13:44:26.833Z,98.9
2022-11-14T13:49:26.010Z,98.9
2022-11-14T13:54:26.300Z,87.9
2022-11-14T13:59:26.510Z,87.9
2022-11-14T14:04:25.915Z,71.8
2022-11-14T14:09:26.205Z,71.8
2022-11-14T14:14:26.041Z,64
2022-11-14T14:19:26.544Z,64
2022-11-14T14:24:26.728Z,33.2
2022-11-14T14:29:25.860Z,33.2
2022-11-14T14:34:26.399Z,27
2022-11-14T14:39:26.185Z,27
2022-11-14T14:44:26.654Z,22.7
2022-11-14T14:49:26.088Z,22.7
2022-11-14T14:54:26.408Z,18.4
2022-11-14T14:59:26.778Z,18.4
2022-11-14T15:04:26.318Z,12.8
2022-11-14T15:09:26.652Z,12.8
2022-11-14T15:14:26.038Z,9.4
2022-11-14T15:19:26.572Z,9.4
2022-11-14T15:24:26.752Z,5
2022-11-14T15:29:26.193Z,5
2022-11-14T15:34:26.299Z,0
2022-11-14T15:39:26.221Z,0
2022-11-14T15:44:26.062Z,0
2022-11-14T15:49:25.864Z,0
2022-11-14T15:54:26.395Z,0
2022-11-14T15:59:26.158Z,0
2022-11-14T16:04:26.540Z,0
2022-11-14T16:09:26.022Z,0
2022-11-14T16:14:26.283Z,0
2022-11-14T16:19:26.572Z,0
2022-11-14T16:24:31.180Z,0
2022-11-14T16:29:26.023Z,0
2022-11-14T16:34:26.394Z,0
2022-11-14T16:39:26.901Z,0
2022-11-14T16:44:26.545Z,0
2022-11-14T16:49:26.026Z,0
2022-11-14T16:54:26.810Z,0
2022-11-14T16:59:26.945Z,0
2022-11-14T17:04:26.191Z,0
2022-11-14T17:09:26.583Z,0
2022-11-14T17:14:25.953Z,0
2022-11-14T17:19:26.436Z,0
2022-11-14T17:24:31.165Z,0
2022-11-14T17:29:26.810Z,0
2022-11-14T17:34:26.273Z,0
2022-11-14T17:39:26.959Z,0
2022-11-14T17:44:26.115Z,0
2022-11-14T17:49:26.304Z,0
2022-11-14T17:54:26.448Z,0
2022-11-14T17:59:26.552Z,0
2022-11-14T18:04:26.780Z,0
2022-11-14T18:09:26.926Z,0
2022-11-14T18:14:26.144Z,0
2022-11-14T18:19:26.438Z,0
2022-11-14T18:24:26.625Z,0
2022-11-14T18:29:26.935Z,0
2022-11-14T18:34:26.083Z,0
2022-11-14T18:39:26.465Z,0
2022-11-14T18:44:26.661Z,0
2022-11-14T18:49:26.723Z,0
2022-11-14T18:54:26.867Z,0
2022-11-14T18:59:26.546Z,0
2022-11-14T19:04:26.933Z,0
2022-11-14T19:09:26.692Z,0
2022-11-14T19:14:26.887Z,0
2022-11-14T19:19:26.553Z,0
2022-11-14T19:24:26.816Z,0
2022-11-14T19:29:26.086Z,0
2022-11-14T19:34:26.201Z,0
2022-11-14T19:39:26.637Z,0
2022-11-14T19:44:26.964Z,0
2022-11-14T19:49:26.283Z,0
2022-11-14T19:54:26.838Z,0
2022-11-14T19:59:26.582Z,0
2022-11-14T20:04:26.816Z,0
2022-11-14T20:09:26.114Z,0
2022-11-14T20:14:26.533Z,0
2022-11-14T20:19:26.871Z,0
2022-11-14T20:24:27.143Z,0
2022-11-14T20:29:26.591Z,0
2022-11-14T20:34:26.683Z,0
2022-11-14T20:39:27.024Z,0
2022-11-14T20:44:26.352Z,0
2022-11-14T20:49:26.657Z,0
2022-11-14T20:54:26.484Z,0
2022-11-14T20:59:26.556Z,0
2022-11-14T21:04:26.602Z,0
2022-11-14T21:09:26.283Z,0
2022-11-14T21:14:27.089Z,0
2022-11-14T21:19:26.167Z,0
2022-11-14T21:24:26.487Z,0
2022-11-14T21:29:26.874Z,0
2022-11-14T21:34:26.655Z,0
2022-11-14T21:39:27.036Z,0
2022-11-14T21:44:26.273Z,0
2022-11-14T21:49:26.588Z,0
2022-11-14T21:54:26.852Z,0
2022-11-14T21:59:27.203Z,0
2022-11-14T22:04:26.477Z,0
2022-11-14T22:09:26.510Z,0
2022-11-14T22:14:26.198Z,0
2022-11-14T22:19:26.386Z,0
2022-11-14T22:24:26.790Z,0
2022-11-14T22:29:26.933Z,0
2022-11-14T22:34:26.912Z,0
2022-11-14T22:39:26.898Z,0
2022-11-14T22:44:27.050Z,0
2022-11-14T22:49:26.270Z,0
2022-11-14T22:54:26.686Z,0
2022-11-14T22:59:26.900Z,0
2022-11-14T23:04:26.402Z,0
2022-11-14T23:09:26.983Z,0
2022-11-14T23:14:27.124Z,0
2022-11-14T23:19:26.482Z,0
2022-11-14T23:24:26.874Z,0
2022-11-14T23:29:27.141Z,0
2022-11-14T23:34:26.964Z,0
2022-11-14T23:39:26.573Z,0
2022-11-14T23:44:26.575Z,0
2022-11-14T23:49:27.581Z,0
2022-11-14T23:54:26.474Z,0
2022-11-14T23:59:26.602Z,0
